PWSweather.com
Personal Weather Stations
Station Observations
DEKREUPEL
Wsv De Kreupel, AndijkNL 1619 JV

Wsv De KreupelAndijkNL 1619 JV

Lat: 52.7417364, Lon: 5.1809356

Elevation: 33

Station Type: Rainwise MKiii LR

High Low Average
Temperature 68.0°F20.0°C 63.2°F17.3°C 66.2°F19.0°C
Dew Point 97.0°F36.1°C 91.4°F33.0°C 94.9°F34.9°C
Winds 18.0 mph 29.0 kmh 3.8 mph 6.1 kmh 9.0 mph W14.5 kmh W
Wind Gusts 20.3 mph32.7 kmh 5.0 mph8.0 kmh 11.0 mph17.7 kmh
Humidity - - -
Pressure 30.32 in1026.8 mb 30.17 in1021.7 mb -
Precipitation 0.00 in0.0 mm - -
Hour Temp Dew Point Humidity Winds Wind Gusts Pressure Precip Precip Rate Daily Precip Total
12:04 AM 63.2°F17.3°C 91.5°F33.1°C - 10.7 mph WSW17.2 kmh WSW 15.1 mph24.3 kmh 30.17 in1021.7 mb 0.00 in0.0 mm 0.00 in0.0 mm 0.00 in0.0 mm
12:09 AM 63.2°F17.3°C 91.5°F33.1°C - 10.5 mph WSW16.9 kmh WSW 14.2 mph22.9 kmh 30.17 in1021.7 mb 0.00 in0.0 mm 0.00 in0.0 mm 0.00 in0.0 mm
12:14 AM 63.2°F17.3°C 91.5°F33.1°C - 10.5 mph WSW16.9 kmh WSW 14.6 mph23.5 kmh 30.17 in1021.7 mb 0.00 in0.0 mm 0.00 in0.0 mm 0.00 in0.0 mm
12:19 AM 63.2°F17.3°C 91.4°F33.0°C - 9.0 mph WSW14.5 kmh WSW 12.5 mph20.1 kmh 30.17 in1021.7 mb 0.00 in0.0 mm 0.00 in0.0 mm 0.00 in0.0 mm
12:24 AM 63.4°F17.4°C 91.8°F33.2°C - 9.7 mph WSW15.6 kmh WSW 13.8 mph22.2 kmh 30.17 in1021.7 mb 0.00 in0.0 mm 0.00 in0.0 mm 0.00 in0.0 mm
12:29 AM 63.5°F17.5°C 91.8°F33.2°C - 9.6 mph WSW15.4 kmh WSW 12.9 mph20.8 kmh 30.18 in1022.0 mb 0.00 in0.0 mm 0.00 in0.0 mm 0.00 in0.0 mm
12:34 AM 63.7°F17.6°C 92.0°F33.3°C - 10.6 mph WSW17.1 kmh WSW 14.2 mph22.9 kmh 30.18 in1022.0 mb 0.00 in0.0 mm 0.00 in0.0 mm 0.00 in0.0 mm
12:39 AM 63.7°F17.6°C 92.1°F33.4°C - 9.2 mph WSW14.8 kmh WSW 13.1 mph21.1 kmh 30.18 in1022.0 mb 0.00 in0.0 mm 0.00 in0.0 mm 0.00 in0.0 mm
12:44 AM 63.7°F17.6°C 92.1°F33.4°C - 8.8 mph WSW14.2 kmh WSW 11.5 mph18.5 kmh 30.18 in1022.0 mb 0.00 in0.0 mm 0.00 in0.0 mm 0.00 in0.0 mm
12:49 AM 63.9°F17.7°C 92.3°F33.5°C - 8.9 mph WSW14.3 kmh WSW 11.7 mph18.8 kmh 30.18 in1022.0 mb 0.00 in0.0 mm 0.00 in0.0 mm 0.00 in0.0 mm
12:54 AM 63.8°F17.7°C 92.1°F33.4°C - 7.7 mph WSW12.4 kmh WSW 9.8 mph15.8 kmh 30.18 in1022.0 mb 0.00 in0.0 mm 0.00 in0.0 mm 0.00 in0.0 mm
12:59 AM 64.0°F17.8°C 92.4°F33.6°C - 8.6 mph SW13.8 kmh SW 11.4 mph18.3 kmh 30.18 in1022.0 mb 0.00 in0.0 mm 0.00 in0.0 mm 0.00 in0.0 mm
01:04 AM 64.0°F17.8°C 92.4°F33.6°C - 9.1 mph WSW14.6 kmh WSW 12.0 mph19.3 kmh 30.18 in1022.0 mb 0.00 in0.0 mm 0.00 in0.0 mm 0.00 in0.0 mm
01:09 AM 64.2°F17.9°C 92.7°F33.7°C - 9.7 mph WSW15.6 kmh WSW 13.6 mph21.9 kmh 30.18 in1022.0 mb 0.00 in0.0 mm 0.00 in0.0 mm 0.00 in0.0 mm
01:14 AM 64.3°F17.9°C 92.8°F33.8°C - 9.0 mph WSW14.5 kmh WSW 11.9 mph19.2 kmh 30.18 in1022.0 mb 0.00 in0.0 mm 0.00 in0.0 mm 0.00 in0.0 mm
01:19 AM 64.4°F18.0°C 92.9°F33.8°C - 10.4 mph SW16.7 kmh SW 14.6 mph23.5 kmh 30.18 in1022.0 mb 0.00 in0.0 mm 0.00 in0.0 mm 0.00 in0.0 mm
01:24 AM 64.5°F18.1°C 93.0°F33.9°C - 9.8 mph WSW15.8 kmh WSW 12.8 mph20.6 kmh 30.18 in1022.0 mb 0.00 in0.0 mm 0.00 in0.0 mm 0.00 in0.0 mm
01:29 AM 64.5°F18.1°C 93.0°F33.9°C - 9.4 mph WSW15.1 kmh WSW 12.5 mph20.1 kmh 30.18 in1022.0 mb 0.00 in0.0 mm 0.00 in0.0 mm 0.00 in0.0 mm
01:34 AM 64.5°F18.1°C 93.0°F33.9°C - 8.0 mph WSW12.9 kmh WSW 11.0 mph17.7 kmh 30.18 in1022.0 mb 0.00 in0.0 mm 0.00 in0.0 mm 0.00 in0.0 mm
01:39 AM 64.5°F18.1°C 92.9°F33.8°C - 8.3 mph WSW13.4 kmh WSW 12.0 mph19.3 kmh 30.17 in1021.7 mb 0.00 in0.0 mm 0.00 in0.0 mm 0.00 in0.0 mm
01:44 AM 64.5°F18.1°C 93.0°F33.9°C - 9.2 mph WSW14.8 kmh WSW 12.6 mph20.3 kmh 30.18 in1022.0 mb 0.00 in0.0 mm 0.00 in0.0 mm 0.00 in0.0 mm
01:49 AM 64.7°F18.2°C 93.1°F33.9°C - 9.2 mph WSW14.8 kmh WSW 13.0 mph20.9 kmh 30.18 in1022.0 mb 0.00 in0.0 mm 0.00 in0.0 mm 0.00 in0.0 mm
01:54 AM 64.7°F18.2°C 93.2°F34.0°C - 8.7 mph WSW14.0 kmh WSW 11.3 mph18.2 kmh 30.18 in1022.0 mb 0.00 in0.0 mm 0.00 in0.0 mm 0.00 in0.0 mm
01:59 AM 64.7°F18.2°C 93.2°F34.0°C - 9.4 mph WSW15.1 kmh WSW 12.0 mph19.3 kmh 30.18 in1022.0 mb 0.00 in0.0 mm 0.00 in0.0 mm 0.00 in0.0 mm
02:04 AM 64.7°F18.2°C 93.2°F34.0°C - 8.4 mph WSW13.5 kmh WSW 10.9 mph17.5 kmh 30.18 in1022.0 mb 0.00 in0.0 mm 0.00 in0.0 mm 0.00 in0.0 mm
02:09 AM 64.8°F18.2°C 93.2°F34.0°C - 10.0 mph WSW16.1 kmh WSW 14.3 mph23.0 kmh 30.18 in1022.0 mb 0.00 in0.0 mm 0.00 in0.0 mm 0.00 in0.0 mm
02:14 AM 64.9°F18.3°C 93.5°F34.2°C - 8.7 mph WSW14.0 kmh WSW 12.3 mph19.8 kmh 30.18 in1022.0 mb 0.00 in0.0 mm 0.00 in0.0 mm 0.00 in0.0 mm
02:19 AM 64.9°F18.3°C 93.5°F34.2°C - 10.7 mph WSW17.2 kmh WSW 12.6 mph20.3 kmh 30.18 in1022.0 mb 0.00 in0.0 mm 0.00 in0.0 mm 0.00 in0.0 mm
02:24 AM 65.0°F18.3°C 93.6°F34.2°C - 10.1 mph WSW16.3 kmh WSW 13.5 mph21.7 kmh 30.18 in1022.0 mb 0.00 in0.0 mm 0.00 in0.0 mm 0.00 in0.0 mm
02:29 AM 65.0°F18.3°C 93.6°F34.2°C - 10.1 mph WSW16.3 kmh WSW 12.4 mph20.0 kmh 30.18 in1022.0 mb 0.00 in0.0 mm 0.00 in0.0 mm 0.00 in0.0 mm
02:34 AM 65.2°F18.4°C 93.8°F34.3°C - 9.7 mph WSW15.6 kmh WSW 12.0 mph19.3 kmh 30.18 in1022.0 mb 0.00 in0.0 mm 0.00 in0.0 mm 0.00 in0.0 mm
02:39 AM 65.0°F18.3°C 93.6°F34.2°C - 10.3 mph WSW16.6 kmh WSW 12.8 mph20.6 kmh 30.18 in1022.0 mb 0.00 in0.0 mm 0.00 in0.0 mm 0.00 in0.0 mm
02:44 AM 65.0°F18.3°C 93.4°F34.1°C - 8.4 mph WSW13.5 kmh WSW 11.6 mph18.7 kmh 30.18 in1022.0 mb 0.00 in0.0 mm 0.00 in0.0 mm 0.00 in0.0 mm
02:49 AM 65.0°F18.3°C 93.6°F34.2°C - 7.9 mph WSW12.7 kmh WSW 10.6 mph17.1 kmh 30.18 in1022.0 mb 0.00 in0.0 mm 0.00 in0.0 mm 0.00 in0.0 mm
02:54 AM 65.0°F18.3°C 93.6°F34.2°C - 7.3 mph WSW11.7 kmh WSW 9.2 mph14.8 kmh 30.18 in1022.0 mb 0.00 in0.0 mm 0.00 in0.0 mm 0.00 in0.0 mm
02:59 AM 65.0°F18.3°C 93.6°F34.2°C - 8.9 mph WSW14.3 kmh WSW 11.7 mph18.8 kmh 30.18 in1022.0 mb 0.00 in0.0 mm 0.00 in0.0 mm 0.00 in0.0 mm
03:04 AM 65.2°F18.4°C 93.8°F34.3°C - 8.2 mph WSW13.2 kmh WSW 10.3 mph16.6 kmh 30.19 in1022.4 mb 0.00 in0.0 mm 0.00 in0.0 mm 0.00 in0.0 mm
03:09 AM 65.2°F18.4°C 93.8°F34.3°C - 8.0 mph WSW12.9 kmh WSW 9.7 mph15.6 kmh 30.19 in1022.4 mb 0.00 in0.0 mm 0.00 in0.0 mm 0.00 in0.0 mm
03:14 AM 65.2°F18.4°C 93.8°F34.3°C - 8.4 mph WSW13.5 kmh WSW 10.5 mph16.9 kmh 30.19 in1022.4 mb 0.00 in0.0 mm 0.00 in0.0 mm 0.00 in0.0 mm
03:19 AM 65.2°F18.4°C 93.7°F34.3°C - 8.5 mph WSW13.7 kmh WSW 11.0 mph17.7 kmh 30.19 in1022.4 mb 0.00 in0.0 mm 0.00 in0.0 mm 0.00 in0.0 mm
03:24 AM 65.2°F18.4°C 93.8°F34.3°C - 8.4 mph WSW13.5 kmh WSW 10.2 mph16.4 kmh 30.19 in1022.4 mb 0.00 in0.0 mm 0.00 in0.0 mm 0.00 in0.0 mm
03:29 AM 65.2°F18.4°C 93.8°F34.3°C - 10.3 mph WSW16.6 kmh WSW 12.3 mph19.8 kmh 30.19 in1022.4 mb 0.00 in0.0 mm 0.00 in0.0 mm 0.00 in0.0 mm
03:34 AM 65.3°F18.5°C 93.9°F34.4°C - 9.2 mph WSW14.8 kmh WSW 10.9 mph17.5 kmh 30.19 in1022.4 mb 0.00 in0.0 mm 0.00 in0.0 mm 0.00 in0.0 mm
03:39 AM 65.4°F18.6°C 94.0°F34.4°C - 10.3 mph WSW16.6 kmh WSW 12.6 mph20.3 kmh 30.19 in1022.4 mb 0.00 in0.0 mm 0.00 in0.0 mm 0.00 in0.0 mm
03:44 AM 65.5°F18.6°C 94.1°F34.5°C - 10.8 mph WSW17.4 kmh WSW 13.2 mph21.2 kmh 30.19 in1022.4 mb 0.00 in0.0 mm 0.00 in0.0 mm 0.00 in0.0 mm
03:49 AM 65.5°F18.6°C 94.1°F34.5°C - 9.8 mph WSW15.8 kmh WSW 12.0 mph19.3 kmh 30.19 in1022.4 mb 0.00 in0.0 mm 0.00 in0.0 mm 0.00 in0.0 mm
03:54 AM 65.5°F18.6°C 94.1°F34.5°C - 10.4 mph WSW16.7 kmh WSW 12.6 mph20.3 kmh 30.19 in1022.4 mb 0.00 in0.0 mm 0.00 in0.0 mm 0.00 in0.0 mm
03:59 AM 65.5°F18.6°C 94.1°F34.5°C - 9.2 mph WSW14.8 kmh WSW 11.5 mph18.5 kmh 30.19 in1022.4 mb 0.00 in0.0 mm 0.00 in0.0 mm 0.00 in0.0 mm
04:04 AM 65.5°F18.6°C 94.1°F34.5°C - 9.7 mph WSW15.6 kmh WSW 11.9 mph19.2 kmh 30.20 in1022.7 mb 0.00 in0.0 mm 0.00 in0.0 mm 0.00 in0.0 mm
04:09 AM 65.7°F18.7°C 94.2°F34.6°C - 9.2 mph WSW14.8 kmh WSW 11.2 mph18.0 kmh 30.20 in1022.7 mb 0.00 in0.0 mm 0.00 in0.0 mm 0.00 in0.0 mm
04:14 AM 65.5°F18.6°C 94.1°F34.5°C - 9.9 mph WSW15.9 kmh WSW 12.2 mph19.6 kmh 30.20 in1022.7 mb 0.00 in0.0 mm 0.00 in0.0 mm 0.00 in0.0 mm
04:19 AM 65.5°F18.6°C 94.1°F34.5°C - 9.5 mph WSW15.3 kmh WSW 11.6 mph18.7 kmh 30.20 in1022.7 mb 0.00 in0.0 mm 0.00 in0.0 mm 0.00 in0.0 mm
04:24 AM 65.5°F18.6°C 94.1°F34.5°C - 10.5 mph WSW16.9 kmh WSW 12.9 mph20.8 kmh 30.20 in1022.7 mb 0.00 in0.0 mm 0.00 in0.0 mm 0.00 in0.0 mm
04:29 AM 65.5°F18.6°C 94.0°F34.4°C - 9.2 mph WSW14.8 kmh WSW 11.5 mph18.5 kmh 30.20 in1022.7 mb 0.00 in0.0 mm 0.00 in0.0 mm 0.00 in0.0 mm
04:34 AM 65.5°F18.6°C 94.1°F34.5°C - 11.2 mph WSW18.0 kmh WSW 14.4 mph23.2 kmh 30.20 in1022.7 mb 0.00 in0.0 mm 0.00 in0.0 mm 0.00 in0.0 mm
04:39 AM 65.5°F18.6°C 94.0°F34.4°C - 10.1 mph WSW16.3 kmh WSW 12.8 mph20.6 kmh 30.21 in1023.0 mb 0.00 in0.0 mm 0.00 in0.0 mm 0.00 in0.0 mm
04:44 AM 65.7°F18.7°C 94.4°F34.7°C - 10.9 mph WSW17.5 kmh WSW 13.8 mph22.2 kmh 30.20 in1022.7 mb 0.00 in0.0 mm 0.00 in0.0 mm 0.00 in0.0 mm
04:49 AM 65.7°F18.7°C 94.2°F34.6°C - 10.1 mph WSW16.3 kmh WSW 13.1 mph21.1 kmh 30.21 in1023.0 mb 0.00 in0.0 mm 0.00 in0.0 mm 0.00 in0.0 mm
04:54 AM 65.7°F18.7°C 94.2°F34.6°C - 9.8 mph WSW15.8 kmh WSW 11.9 mph19.2 kmh 30.21 in1023.0 mb 0.00 in0.0 mm 0.00 in0.0 mm 0.00 in0.0 mm
04:59 AM 65.7°F18.7°C 94.4°F34.7°C - 10.2 mph WSW16.4 kmh WSW 13.0 mph20.9 kmh 30.20 in1022.7 mb 0.00 in0.0 mm 0.00 in0.0 mm 0.00 in0.0 mm
05:04 AM 65.7°F18.7°C 94.2°F34.6°C - 10.3 mph WSW16.6 kmh WSW 12.7 mph20.4 kmh 30.21 in1023.0 mb 0.00 in0.0 mm 0.00 in0.0 mm 0.00 in0.0 mm
05:09 AM 65.7°F18.7°C 94.2°F34.6°C - 10.3 mph WSW16.6 kmh WSW 12.8 mph20.6 kmh 30.21 in1023.0 mb 0.00 in0.0 mm 0.00 in0.0 mm 0.00 in0.0 mm
05:14 AM 65.7°F18.7°C 94.4°F34.7°C - 10.9 mph WSW17.5 kmh WSW 13.7 mph22.0 kmh 30.21 in1023.0 mb 0.00 in0.0 mm 0.00 in0.0 mm 0.00 in0.0 mm
05:19 AM 65.7°F18.7°C 94.4°F34.7°C - 9.1 mph WSW14.6 kmh WSW 11.3 mph18.2 kmh 30.21 in1023.0 mb 0.00 in0.0 mm 0.00 in0.0 mm 0.00 in0.0 mm
05:24 AM 65.7°F18.7°C 94.4°F34.7°C - 9.4 mph WSW15.1 kmh WSW 12.6 mph20.3 kmh 30.21 in1023.0 mb 0.00 in0.0 mm 0.00 in0.0 mm 0.00 in0.0 mm
05:29 AM 65.7°F18.7°C 94.2°F34.6°C - 9.0 mph WSW14.5 kmh WSW 11.3 mph18.2 kmh 30.22 in1023.4 mb 0.00 in0.0 mm 0.00 in0.0 mm 0.00 in0.0 mm
05:34 AM 65.9°F18.8°C 94.6°F34.8°C - 8.4 mph WSW13.5 kmh WSW 10.3 mph16.6 kmh 30.22 in1023.4 mb 0.00 in0.0 mm 0.00 in0.0 mm 0.00 in0.0 mm
05:39 AM 65.9°F18.8°C 94.6°F34.8°C - 9.3 mph W15.0 kmh W 11.2 mph18.0 kmh 30.21 in1023.0 mb 0.00 in0.0 mm 0.00 in0.0 mm 0.00 in0.0 mm
05:44 AM 66.0°F18.9°C 94.7°F34.8°C - 10.3 mph W16.6 kmh W 12.1 mph19.5 kmh 30.22 in1023.4 mb 0.00 in0.0 mm 0.00 in0.0 mm 0.00 in0.0 mm
05:49 AM 66.0°F18.9°C 94.6°F34.8°C - 10.1 mph W16.3 kmh W 12.2 mph19.6 kmh 30.22 in1023.4 mb 0.00 in0.0 mm 0.00 in0.0 mm 0.00 in0.0 mm
05:54 AM 66.0°F18.9°C 94.7°F34.8°C - 9.7 mph W15.6 kmh W 11.7 mph18.8 kmh 30.22 in1023.4 mb 0.00 in0.0 mm 0.00 in0.0 mm 0.00 in0.0 mm
05:59 AM 66.2°F19.0°C 94.9°F34.9°C - 10.2 mph W16.4 kmh W 12.3 mph19.8 kmh 30.22 in1023.4 mb 0.00 in0.0 mm 0.00 in0.0 mm 0.00 in0.0 mm
06:04 AM 66.2°F19.0°C 94.9°F34.9°C - 11.5 mph W18.5 kmh W 13.8 mph22.2 kmh 30.22 in1023.4 mb 0.00 in0.0 mm 0.00 in0.0 mm 0.00 in0.0 mm
06:09 AM 66.0°F18.9°C 94.6°F34.8°C - 11.5 mph W18.5 kmh W 13.8 mph22.2 kmh 30.22 in1023.4 mb 0.00 in0.0 mm 0.00 in0.0 mm 0.00 in0.0 mm
06:14 AM 66.0°F18.9°C 94.7°F34.8°C - 12.7 mph W20.4 kmh W 15.5 mph24.9 kmh 30.22 in1023.4 mb 0.00 in0.0 mm 0.00 in0.0 mm 0.00 in0.0 mm
06:19 AM 66.0°F18.9°C 94.6°F34.8°C - 10.7 mph W17.2 kmh W 13.1 mph21.1 kmh 30.22 in1023.4 mb 0.00 in0.0 mm 0.00 in0.0 mm 0.00 in0.0 mm
06:24 AM 65.9°F18.8°C 94.6°F34.8°C - 9.9 mph W15.9 kmh W 12.3 mph19.8 kmh 30.22 in1023.4 mb 0.00 in0.0 mm 0.00 in0.0 mm 0.00 in0.0 mm
06:29 AM 66.0°F18.9°C 94.7°F34.8°C - 9.9 mph W15.9 kmh W 13.3 mph21.4 kmh 30.23 in1023.7 mb 0.00 in0.0 mm 0.00 in0.0 mm 0.00 in0.0 mm
06:34 AM 66.0°F18.9°C 94.7°F34.8°C - 8.9 mph W14.3 kmh W 10.4 mph16.7 kmh 30.23 in1023.7 mb 0.00 in0.0 mm 0.00 in0.0 mm 0.00 in0.0 mm
06:39 AM 66.0°F18.9°C 94.7°F34.8°C - 9.5 mph W15.3 kmh W 11.2 mph18.0 kmh 30.23 in1023.7 mb 0.00 in0.0 mm 0.00 in0.0 mm 0.00 in0.0 mm
06:44 AM 66.0°F18.9°C 94.7°F34.8°C - 11.3 mph W18.2 kmh W 13.6 mph21.9 kmh 30.23 in1023.7 mb 0.00 in0.0 mm 0.00 in0.0 mm 0.00 in0.0 mm
06:49 AM 66.2°F19.0°C 94.9°F34.9°C - 10.8 mph W17.4 kmh W 13.4 mph21.6 kmh 30.23 in1023.7 mb 0.00 in0.0 mm 0.00 in0.0 mm 0.00 in0.0 mm
06:54 AM 66.2°F19.0°C 94.9°F34.9°C - 11.3 mph W18.2 kmh W 13.2 mph21.2 kmh 30.23 in1023.7 mb 0.00 in0.0 mm 0.00 in0.0 mm 0.00 in0.0 mm
06:59 AM 66.3°F19.1°C 95.0°F35.0°C - 11.6 mph WNW18.7 kmh WNW 15.3 mph24.6 kmh 30.23 in1023.7 mb 0.00 in0.0 mm 0.00 in0.0 mm 0.00 in0.0 mm
07:04 AM 66.5°F19.2°C 95.3°F35.2°C - 11.1 mph W17.9 kmh W 13.3 mph21.4 kmh 30.23 in1023.7 mb 0.00 in0.0 mm 0.00 in0.0 mm 0.00 in0.0 mm
07:09 AM 66.5°F19.2°C 95.1°F35.1°C - 11.6 mph W18.7 kmh W 13.8 mph22.2 kmh 30.24 in1024.0 mb 0.00 in0.0 mm 0.00 in0.0 mm 0.00 in0.0 mm
07:14 AM 66.5°F19.2°C 95.1°F35.1°C - 8.7 mph W14.0 kmh W 10.9 mph17.5 kmh 30.24 in1024.0 mb 0.00 in0.0 mm 0.00 in0.0 mm 0.00 in0.0 mm
07:19 AM 66.7°F19.3°C 95.5°F35.3°C - 10.4 mph W16.7 kmh W 12.8 mph20.6 kmh 30.24 in1024.0 mb 0.00 in0.0 mm 0.00 in0.0 mm 0.00 in0.0 mm
07:24 AM 66.7°F19.3°C 95.5°F35.3°C - 10.1 mph W16.3 kmh W 12.3 mph19.8 kmh 30.24 in1024.0 mb 0.00 in0.0 mm 0.00 in0.0 mm 0.00 in0.0 mm
07:29 AM 66.7°F19.3°C 95.5°F35.3°C - 12.2 mph WNW19.6 kmh WNW 15.0 mph24.1 kmh 30.24 in1024.0 mb 0.00 in0.0 mm 0.00 in0.0 mm 0.00 in0.0 mm
07:34 AM 66.7°F19.3°C 95.5°F35.3°C - 11.3 mph W18.2 kmh W 12.9 mph20.8 kmh 30.25 in1024.4 mb 0.00 in0.0 mm 0.00 in0.0 mm 0.00 in0.0 mm
07:39 AM 66.7°F19.3°C 95.5°F35.3°C - 12.2 mph WNW19.6 kmh WNW 16.0 mph25.7 kmh 30.25 in1024.4 mb 0.00 in0.0 mm 0.00 in0.0 mm 0.00 in0.0 mm
07:44 AM 66.5°F19.2°C 95.3°F35.2°C - 13.5 mph WNW21.7 kmh WNW 16.0 mph25.7 kmh 30.25 in1024.4 mb 0.00 in0.0 mm 0.00 in0.0 mm 0.00 in0.0 mm
07:49 AM 66.5°F19.2°C 95.3°F35.2°C - 13.5 mph WNW21.7 kmh WNW 15.7 mph25.3 kmh 30.25 in1024.4 mb 0.00 in0.0 mm 0.00 in0.0 mm 0.00 in0.0 mm
07:54 AM 66.5°F19.2°C 95.3°F35.2°C - 13.9 mph WNW22.4 kmh WNW 16.4 mph26.4 kmh 30.25 in1024.4 mb 0.00 in0.0 mm 0.00 in0.0 mm 0.00 in0.0 mm
07:59 AM 66.5°F19.2°C 95.3°F35.2°C - 14.5 mph WNW23.3 kmh WNW 17.0 mph27.4 kmh 30.25 in1024.4 mb 0.00 in0.0 mm 0.00 in0.0 mm 0.00 in0.0 mm
08:04 AM 66.5°F19.2°C 95.1°F35.1°C - 16.2 mph WNW26.1 kmh WNW 19.2 mph30.9 kmh 30.25 in1024.4 mb 0.00 in0.0 mm 0.00 in0.0 mm 0.00 in0.0 mm
08:09 AM 66.4°F19.1°C 95.2°F35.1°C - 17.3 mph NW27.8 kmh NW 19.7 mph31.7 kmh 30.26 in1024.7 mb 0.00 in0.0 mm 0.00 in0.0 mm 0.00 in0.0 mm
08:14 AM 66.2°F19.0°C 94.9°F34.9°C - 16.8 mph WNW27.0 kmh WNW 19.2 mph30.9 kmh 30.25 in1024.4 mb 0.00 in0.0 mm 0.00 in0.0 mm 0.00 in0.0 mm
08:19 AM 66.2°F19.0°C 94.9°F34.9°C - 18.0 mph NW29.0 kmh NW 20.3 mph32.7 kmh 30.26 in1024.7 mb 0.00 in0.0 mm 0.00 in0.0 mm 0.00 in0.0 mm
08:24 AM 66.2°F19.0°C 94.8°F34.9°C - 17.3 mph WNW27.8 kmh WNW 20.0 mph32.2 kmh 30.26 in1024.7 mb 0.00 in0.0 mm 0.00 in0.0 mm 0.00 in0.0 mm
08:29 AM 66.0°F18.9°C 94.6°F34.8°C - 16.3 mph WNW26.2 kmh WNW 19.1 mph30.7 kmh 30.26 in1024.7 mb 0.00 in0.0 mm 0.00 in0.0 mm 0.00 in0.0 mm
08:34 AM 66.0°F18.9°C 94.7°F34.8°C - 16.4 mph WNW26.4 kmh WNW 18.3 mph29.5 kmh 30.26 in1024.7 mb 0.00 in0.0 mm 0.00 in0.0 mm 0.00 in0.0 mm
08:39 AM 65.9°F18.8°C 94.6°F34.8°C - 17.5 mph WNW28.2 kmh WNW 19.5 mph31.4 kmh 30.26 in1024.7 mb 0.00 in0.0 mm 0.00 in0.0 mm 0.00 in0.0 mm
08:44 AM 65.9°F18.8°C 94.6°F34.8°C - 17.7 mph WNW28.5 kmh WNW 19.8 mph31.9 kmh 30.27 in1025.1 mb 0.00 in0.0 mm 0.00 in0.0 mm 0.00 in0.0 mm
08:49 AM 65.7°F18.7°C 94.4°F34.7°C - 16.6 mph WNW26.7 kmh WNW 18.6 mph29.9 kmh 30.27 in1025.1 mb 0.00 in0.0 mm 0.00 in0.0 mm 0.00 in0.0 mm
08:54 AM 65.7°F18.7°C 94.4°F34.7°C - 15.9 mph NW25.6 kmh NW 17.8 mph28.6 kmh 30.28 in1025.4 mb 0.00 in0.0 mm 0.00 in0.0 mm 0.00 in0.0 mm
08:59 AM 65.7°F18.7°C 94.4°F34.7°C - 15.4 mph NW24.8 kmh NW 17.2 mph27.7 kmh 30.28 in1025.4 mb 0.00 in0.0 mm 0.00 in0.0 mm 0.00 in0.0 mm
09:04 AM 65.5°F18.6°C 94.0°F34.4°C - 15.1 mph NW24.3 kmh NW 16.6 mph26.7 kmh 30.28 in1025.4 mb 0.00 in0.0 mm 0.00 in0.0 mm 0.00 in0.0 mm
09:09 AM 65.5°F18.6°C 94.1°F34.5°C - 14.2 mph NW22.9 kmh NW 16.3 mph26.2 kmh 30.28 in1025.4 mb 0.00 in0.0 mm 0.00 in0.0 mm 0.00 in0.0 mm
09:14 AM 65.5°F18.6°C 94.0°F34.4°C - 13.3 mph NW21.4 kmh NW 15.0 mph24.1 kmh 30.28 in1025.4 mb 0.00 in0.0 mm 0.00 in0.0 mm 0.00 in0.0 mm
09:19 AM 65.7°F18.7°C 94.2°F34.6°C - 12.8 mph NW20.6 kmh NW 14.4 mph23.2 kmh 30.28 in1025.4 mb 0.00 in0.0 mm 0.00 in0.0 mm 0.00 in0.0 mm
09:24 AM 65.7°F18.7°C 94.4°F34.7°C - 11.1 mph NW17.9 kmh NW 12.4 mph20.0 kmh 30.28 in1025.4 mb 0.00 in0.0 mm 0.00 in0.0 mm 0.00 in0.0 mm
09:29 AM 65.9°F18.8°C 94.6°F34.8°C - 10.1 mph NW16.3 kmh NW 11.6 mph18.7 kmh 30.28 in1025.4 mb 0.00 in0.0 mm 0.00 in0.0 mm 0.00 in0.0 mm
09:34 AM 66.0°F18.9°C 94.6°F34.8°C - 8.4 mph NW13.5 kmh NW 9.4 mph15.1 kmh 30.28 in1025.4 mb 0.00 in0.0 mm 0.00 in0.0 mm 0.00 in0.0 mm
09:39 AM 66.2°F19.0°C 94.9°F34.9°C - 7.7 mph WNW12.4 kmh WNW 8.5 mph13.7 kmh 30.28 in1025.4 mb 0.00 in0.0 mm 0.00 in0.0 mm 0.00 in0.0 mm
09:44 AM 66.2°F19.0°C 94.8°F34.9°C - 10.9 mph NW17.5 kmh NW 12.3 mph19.8 kmh 30.28 in1025.4 mb 0.00 in0.0 mm 0.00 in0.0 mm 0.00 in0.0 mm
09:49 AM 66.2°F19.0°C 94.9°F34.9°C - 12.0 mph NW19.3 kmh NW 13.7 mph22.0 kmh 30.28 in1025.4 mb 0.00 in0.0 mm 0.00 in0.0 mm 0.00 in0.0 mm
09:54 AM 66.2°F19.0°C 94.9°F34.9°C - 11.8 mph NW19.0 kmh NW 13.0 mph20.9 kmh 30.29 in1025.7 mb 0.00 in0.0 mm 0.00 in0.0 mm 0.00 in0.0 mm
09:59 AM 66.4°F19.1°C 95.0°F35.0°C - 10.0 mph NNW16.1 kmh NNW 11.4 mph18.3 kmh 30.29 in1025.7 mb 0.00 in0.0 mm 0.00 in0.0 mm 0.00 in0.0 mm
10:04 AM 66.5°F19.2°C 95.3°F35.2°C - 11.7 mph NW18.8 kmh NW 12.8 mph20.6 kmh 30.29 in1025.7 mb 0.00 in0.0 mm 0.00 in0.0 mm 0.00 in0.0 mm
10:09 AM 66.5°F19.2°C 95.3°F35.2°C - 9.6 mph WNW15.4 kmh WNW 11.2 mph18.0 kmh 30.29 in1025.7 mb 0.00 in0.0 mm 0.00 in0.0 mm 0.00 in0.0 mm
10:14 AM 66.4°F19.1°C 95.0°F35.0°C - 10.8 mph NW17.4 kmh NW 12.0 mph19.3 kmh 30.29 in1025.7 mb 0.00 in0.0 mm 0.00 in0.0 mm 0.00 in0.0 mm
10:19 AM 66.2°F19.0°C 94.8°F34.9°C - 9.6 mph NW15.4 kmh NW 11.0 mph17.7 kmh 30.29 in1025.7 mb 0.00 in0.0 mm 0.00 in0.0 mm 0.00 in0.0 mm
10:24 AM 66.2°F19.0°C 94.9°F34.9°C - 10.5 mph NW16.9 kmh NW 12.1 mph19.5 kmh 30.29 in1025.7 mb 0.00 in0.0 mm 0.00 in0.0 mm 0.00 in0.0 mm
10:29 AM 66.2°F19.0°C 94.9°F34.9°C - 10.7 mph WNW17.2 kmh WNW 11.8 mph19.0 kmh 30.30 in1026.1 mb 0.00 in0.0 mm 0.00 in0.0 mm 0.00 in0.0 mm
10:34 AM 66.2°F19.0°C 94.9°F34.9°C - 10.9 mph NW17.5 kmh NW 12.3 mph19.8 kmh 30.30 in1026.1 mb 0.00 in0.0 mm 0.00 in0.0 mm 0.00 in0.0 mm
10:39 AM 66.2°F19.0°C 94.8°F34.9°C - 8.8 mph WNW14.2 kmh WNW 10.0 mph16.1 kmh 30.30 in1026.1 mb 0.00 in0.0 mm 0.00 in0.0 mm 0.00 in0.0 mm
10:44 AM 66.2°F19.0°C 94.9°F34.9°C - 9.5 mph WNW15.3 kmh WNW 10.4 mph16.7 kmh 30.30 in1026.1 mb 0.00 in0.0 mm 0.00 in0.0 mm 0.00 in0.0 mm
10:49 AM 66.2°F19.0°C 94.9°F34.9°C - 9.4 mph NW15.1 kmh NW 10.6 mph17.1 kmh 30.30 in1026.1 mb 0.00 in0.0 mm 0.00 in0.0 mm 0.00 in0.0 mm
10:54 AM 66.2°F19.0°C 94.8°F34.9°C - 9.4 mph WNW15.1 kmh WNW 10.6 mph17.1 kmh 30.30 in1026.1 mb 0.00 in0.0 mm 0.00 in0.0 mm 0.00 in0.0 mm
10:59 AM 66.2°F19.0°C 94.8°F34.9°C - 8.7 mph WNW14.0 kmh WNW 9.9 mph15.9 kmh 30.30 in1026.1 mb 0.00 in0.0 mm 0.00 in0.0 mm 0.00 in0.0 mm
11:04 AM 66.0°F18.9°C 94.6°F34.8°C - 7.8 mph WNW12.6 kmh WNW 8.7 mph14.0 kmh 30.30 in1026.1 mb 0.00 in0.0 mm 0.00 in0.0 mm 0.00 in0.0 mm
11:09 AM 66.2°F19.0°C 94.9°F34.9°C - 7.7 mph WNW12.4 kmh WNW 8.3 mph13.4 kmh 30.30 in1026.1 mb 0.00 in0.0 mm 0.00 in0.0 mm 0.00 in0.0 mm
11:14 AM 66.2°F19.0°C 94.9°F34.9°C - 7.6 mph WNW12.2 kmh WNW 8.4 mph13.5 kmh 30.30 in1026.1 mb 0.00 in0.0 mm 0.00 in0.0 mm 0.00 in0.0 mm
11:19 AM 66.2°F19.0°C 94.9°F34.9°C - 6.6 mph W10.6 kmh W 7.7 mph12.4 kmh 30.30 in1026.1 mb 0.00 in0.0 mm 0.00 in0.0 mm 0.00 in0.0 mm
11:24 AM 66.2°F19.0°C 94.8°F34.9°C - 6.9 mph WNW11.1 kmh WNW 8.0 mph12.9 kmh 30.31 in1026.4 mb 0.00 in0.0 mm 0.00 in0.0 mm 0.00 in0.0 mm
11:29 AM 66.3°F19.1°C 95.0°F35.0°C - 6.7 mph WNW10.8 kmh WNW 7.6 mph12.2 kmh 30.30 in1026.1 mb 0.00 in0.0 mm 0.00 in0.0 mm 0.00 in0.0 mm
11:34 AM 66.2°F19.0°C 94.9°F34.9°C - 8.3 mph WNW13.4 kmh WNW 9.1 mph14.6 kmh 30.31 in1026.4 mb 0.00 in0.0 mm 0.00 in0.0 mm 0.00 in0.0 mm
11:39 AM 66.2°F19.0°C 94.8°F34.9°C - 6.4 mph WNW10.3 kmh WNW 7.4 mph11.9 kmh 30.31 in1026.4 mb 0.00 in0.0 mm 0.00 in0.0 mm 0.00 in0.0 mm
11:44 AM 66.4°F19.1°C 95.0°F35.0°C - 6.5 mph WNW10.5 kmh WNW 7.3 mph11.7 kmh 30.31 in1026.4 mb 0.00 in0.0 mm 0.00 in0.0 mm 0.00 in0.0 mm
11:49 AM 66.5°F19.2°C 95.1°F35.1°C - 5.6 mph WNW9.0 kmh WNW 6.9 mph11.1 kmh 30.31 in1026.4 mb 0.00 in0.0 mm 0.00 in0.0 mm 0.00 in0.0 mm
11:54 AM 66.7°F19.3°C 95.5°F35.3°C - 5.9 mph WNW9.5 kmh WNW 7.0 mph11.3 kmh 30.31 in1026.4 mb 0.00 in0.0 mm 0.00 in0.0 mm 0.00 in0.0 mm
11:59 AM 66.8°F19.3°C 95.6°F35.3°C - 7.7 mph NW12.4 kmh NW 9.3 mph15.0 kmh 30.31 in1026.4 mb 0.00 in0.0 mm 0.00 in0.0 mm 0.00 in0.0 mm
12:04 PM 66.9°F19.4°C 95.6°F35.3°C - 5.7 mph WNW9.2 kmh WNW 6.6 mph10.6 kmh 30.31 in1026.4 mb 0.00 in0.0 mm 0.00 in0.0 mm 0.00 in0.0 mm
12:09 PM 67.2°F19.6°C 96.1°F35.6°C - 5.7 mph WNW9.2 kmh WNW 6.8 mph10.9 kmh 30.31 in1026.4 mb 0.00 in0.0 mm 0.00 in0.0 mm 0.00 in0.0 mm
12:14 PM 67.2°F19.6°C 96.1°F35.6°C - 5.5 mph WNW8.9 kmh WNW 7.4 mph11.9 kmh 30.31 in1026.4 mb 0.00 in0.0 mm 0.00 in0.0 mm 0.00 in0.0 mm
12:19 PM 67.2°F19.6°C 95.9°F35.5°C - 7.3 mph NW11.7 kmh NW 8.5 mph13.7 kmh 30.31 in1026.4 mb 0.00 in0.0 mm 0.00 in0.0 mm 0.00 in0.0 mm
12:24 PM 67.2°F19.6°C 95.9°F35.5°C - 8.6 mph WNW13.8 kmh WNW 10.7 mph17.2 kmh 30.31 in1026.4 mb 0.00 in0.0 mm 0.00 in0.0 mm 0.00 in0.0 mm
12:29 PM 67.2°F19.6°C 95.9°F35.5°C - 7.8 mph WNW12.6 kmh WNW 8.7 mph14.0 kmh 30.31 in1026.4 mb 0.00 in0.0 mm 0.00 in0.0 mm 0.00 in0.0 mm
12:34 PM 67.4°F19.7°C 96.3°F35.7°C - 5.6 mph WNW9.0 kmh WNW 6.4 mph10.3 kmh 30.31 in1026.4 mb 0.00 in0.0 mm 0.00 in0.0 mm 0.00 in0.0 mm
12:39 PM 67.6°F19.8°C 96.4°F35.8°C - 7.2 mph WNW11.6 kmh WNW 8.9 mph14.3 kmh 30.31 in1026.4 mb 0.00 in0.0 mm 0.00 in0.0 mm 0.00 in0.0 mm
12:44 PM 67.7°F19.8°C 96.5°F35.8°C - 5.7 mph WNW9.2 kmh WNW 7.5 mph12.1 kmh 30.31 in1026.4 mb 0.00 in0.0 mm 0.00 in0.0 mm 0.00 in0.0 mm
12:49 PM 67.6°F19.8°C 96.5°F35.8°C - 7.4 mph WNW11.9 kmh WNW 9.1 mph14.6 kmh 30.31 in1026.4 mb 0.00 in0.0 mm 0.00 in0.0 mm 0.00 in0.0 mm
12:54 PM 67.5°F19.7°C 96.3°F35.7°C - 9.2 mph WNW14.8 kmh WNW 10.4 mph16.7 kmh 30.31 in1026.4 mb 0.00 in0.0 mm 0.00 in0.0 mm 0.00 in0.0 mm
12:59 PM 67.5°F19.7°C 96.4°F35.8°C - 9.0 mph WNW14.5 kmh WNW 10.3 mph16.6 kmh 30.31 in1026.4 mb 0.00 in0.0 mm 0.00 in0.0 mm 0.00 in0.0 mm
01:04 PM 67.4°F19.7°C 96.2°F35.7°C - 9.4 mph WNW15.1 kmh WNW 10.3 mph16.6 kmh 30.31 in1026.4 mb 0.00 in0.0 mm 0.00 in0.0 mm 0.00 in0.0 mm
01:09 PM 67.3°F19.6°C 96.0°F35.6°C - 10.3 mph WNW16.6 kmh WNW 11.5 mph18.5 kmh 30.31 in1026.4 mb 0.00 in0.0 mm 0.00 in0.0 mm 0.00 in0.0 mm
01:14 PM 67.4°F19.7°C 96.3°F35.7°C - 10.0 mph WNW16.1 kmh WNW 11.4 mph18.3 kmh 30.31 in1026.4 mb 0.00 in0.0 mm 0.00 in0.0 mm 0.00 in0.0 mm
01:19 PM 67.2°F19.6°C 96.1°F35.6°C - 9.4 mph WNW15.1 kmh WNW 10.3 mph16.6 kmh 30.32 in1026.8 mb 0.00 in0.0 mm 0.00 in0.0 mm 0.00 in0.0 mm
01:24 PM 67.2°F19.6°C 96.1°F35.6°C - 9.9 mph NW15.9 kmh NW 11.0 mph17.7 kmh 30.31 in1026.4 mb 0.00 in0.0 mm 0.00 in0.0 mm 0.00 in0.0 mm
01:29 PM 67.2°F19.6°C 95.9°F35.5°C - 8.9 mph WNW14.3 kmh WNW 10.1 mph16.3 kmh 30.32 in1026.8 mb 0.00 in0.0 mm 0.00 in0.0 mm 0.00 in0.0 mm
01:34 PM 67.2°F19.6°C 95.9°F35.5°C - 8.0 mph WNW12.9 kmh WNW 9.0 mph14.5 kmh 30.32 in1026.8 mb 0.00 in0.0 mm 0.00 in0.0 mm 0.00 in0.0 mm
01:39 PM 67.2°F19.6°C 96.1°F35.6°C - 8.1 mph WNW13.0 kmh WNW 8.8 mph14.2 kmh 30.32 in1026.8 mb 0.00 in0.0 mm 0.00 in0.0 mm 0.00 in0.0 mm
01:44 PM 67.2°F19.6°C 96.1°F35.6°C - 8.2 mph WNW13.2 kmh WNW 9.5 mph15.3 kmh 30.32 in1026.8 mb 0.00 in0.0 mm 0.00 in0.0 mm 0.00 in0.0 mm
01:49 PM 67.2°F19.6°C 95.9°F35.5°C - 8.3 mph WNW13.4 kmh WNW 9.2 mph14.8 kmh 30.32 in1026.8 mb 0.00 in0.0 mm 0.00 in0.0 mm 0.00 in0.0 mm
01:54 PM 67.2°F19.6°C 95.9°F35.5°C - 6.5 mph WNW10.5 kmh WNW 7.4 mph11.9 kmh 30.32 in1026.8 mb 0.00 in0.0 mm 0.00 in0.0 mm 0.00 in0.0 mm
01:59 PM 67.4°F19.7°C 96.3°F35.7°C - 6.8 mph WNW10.9 kmh WNW 8.0 mph12.9 kmh 30.32 in1026.8 mb 0.00 in0.0 mm 0.00 in0.0 mm 0.00 in0.0 mm
02:04 PM 67.4°F19.7°C 96.3°F35.7°C - 6.9 mph WNW11.1 kmh WNW 7.7 mph12.4 kmh 30.32 in1026.8 mb 0.00 in0.0 mm 0.00 in0.0 mm 0.00 in0.0 mm
02:09 PM 67.5°F19.7°C 96.3°F35.7°C - 6.1 mph NW9.8 kmh NW 7.0 mph11.3 kmh 30.32 in1026.8 mb 0.00 in0.0 mm 0.00 in0.0 mm 0.00 in0.0 mm
02:14 PM 67.5°F19.7°C 96.3°F35.7°C - 7.0 mph WNW11.3 kmh WNW 8.0 mph12.9 kmh 30.32 in1026.8 mb 0.00 in0.0 mm 0.00 in0.0 mm 0.00 in0.0 mm
02:19 PM 67.5°F19.7°C 96.4°F35.8°C - 8.5 mph WNW13.7 kmh WNW 9.7 mph15.6 kmh 30.32 in1026.8 mb 0.00 in0.0 mm 0.00 in0.0 mm 0.00 in0.0 mm
02:24 PM 67.4°F19.7°C 96.2°F35.7°C - 7.1 mph WNW11.4 kmh WNW 8.6 mph13.8 kmh 30.32 in1026.8 mb 0.00 in0.0 mm 0.00 in0.0 mm 0.00 in0.0 mm
02:29 PM 67.5°F19.7°C 96.4°F35.8°C - 9.3 mph WNW15.0 kmh WNW 11.1 mph17.9 kmh 30.32 in1026.8 mb 0.00 in0.0 mm 0.00 in0.0 mm 0.00 in0.0 mm
02:34 PM 67.5°F19.7°C 96.3°F35.7°C - 8.2 mph WNW13.2 kmh WNW 9.5 mph15.3 kmh 30.32 in1026.8 mb 0.00 in0.0 mm 0.00 in0.0 mm 0.00 in0.0 mm
02:39 PM 67.4°F19.7°C 96.3°F35.7°C - 7.9 mph WNW12.7 kmh WNW 8.8 mph14.2 kmh 30.32 in1026.8 mb 0.00 in0.0 mm 0.00 in0.0 mm 0.00 in0.0 mm
02:44 PM 67.4°F19.7°C 96.3°F35.7°C - 7.5 mph NW12.1 kmh NW 8.9 mph14.3 kmh 30.32 in1026.8 mb 0.00 in0.0 mm 0.00 in0.0 mm 0.00 in0.0 mm
02:49 PM 67.5°F19.7°C 96.4°F35.8°C - 8.0 mph W12.9 kmh W 9.8 mph15.8 kmh 30.32 in1026.8 mb 0.00 in0.0 mm 0.00 in0.0 mm 0.00 in0.0 mm
02:54 PM 67.5°F19.7°C 96.3°F35.7°C - 7.8 mph WNW12.6 kmh WNW 9.4 mph15.1 kmh 30.32 in1026.8 mb 0.00 in0.0 mm 0.00 in0.0 mm 0.00 in0.0 mm
02:59 PM 67.5°F19.7°C 96.4°F35.8°C - 6.9 mph W11.1 kmh W 8.3 mph13.4 kmh 30.32 in1026.8 mb 0.00 in0.0 mm 0.00 in0.0 mm 0.00 in0.0 mm
03:04 PM 67.6°F19.8°C 96.5°F35.8°C - 7.9 mph WNW12.7 kmh WNW 9.3 mph15.0 kmh 30.32 in1026.8 mb 0.00 in0.0 mm 0.00 in0.0 mm 0.00 in0.0 mm
03:09 PM 67.5°F19.7°C 96.3°F35.7°C - 8.5 mph WNW13.7 kmh WNW 10.0 mph16.1 kmh 30.32 in1026.8 mb 0.00 in0.0 mm 0.00 in0.0 mm 0.00 in0.0 mm
03:14 PM 67.4°F19.7°C 96.3°F35.7°C - 7.2 mph W11.6 kmh W 8.5 mph13.7 kmh 30.32 in1026.8 mb 0.00 in0.0 mm 0.00 in0.0 mm 0.00 in0.0 mm
03:19 PM 67.4°F19.7°C 96.2°F35.7°C - 8.1 mph WSW13.0 kmh WSW 10.4 mph16.7 kmh 30.32 in1026.8 mb 0.00 in0.0 mm 0.00 in0.0 mm 0.00 in0.0 mm
03:24 PM 67.4°F19.7°C 96.2°F35.7°C - 8.9 mph W14.3 kmh W 10.8 mph17.4 kmh 30.32 in1026.8 mb 0.00 in0.0 mm 0.00 in0.0 mm 0.00 in0.0 mm
03:29 PM 67.4°F19.7°C 96.3°F35.7°C - 8.0 mph W12.9 kmh W 9.5 mph15.3 kmh 30.32 in1026.8 mb 0.00 in0.0 mm 0.00 in0.0 mm 0.00 in0.0 mm
03:34 PM 67.5°F19.7°C 96.3°F35.7°C - 7.4 mph W11.9 kmh W 9.2 mph14.8 kmh 30.32 in1026.8 mb 0.00 in0.0 mm 0.00 in0.0 mm 0.00 in0.0 mm
03:39 PM 67.5°F19.7°C 96.4°F35.8°C - 9.1 mph WSW14.6 kmh WSW 11.5 mph18.5 kmh 30.32 in1026.8 mb 0.00 in0.0 mm 0.00 in0.0 mm 0.00 in0.0 mm
03:44 PM 67.6°F19.8°C 96.5°F35.8°C - 6.5 mph WNW10.5 kmh WNW 8.2 mph13.2 kmh 30.32 in1026.8 mb 0.00 in0.0 mm 0.00 in0.0 mm 0.00 in0.0 mm
03:49 PM 67.7°F19.8°C 96.6°F35.9°C - 7.4 mph W11.9 kmh W 9.1 mph14.6 kmh 30.32 in1026.8 mb 0.00 in0.0 mm 0.00 in0.0 mm 0.00 in0.0 mm
03:54 PM 67.9°F19.9°C 96.8°F36.0°C - 9.4 mph WSW15.1 kmh WSW 11.4 mph18.3 kmh 30.32 in1026.8 mb 0.00 in0.0 mm 0.00 in0.0 mm 0.00 in0.0 mm
03:59 PM 67.9°F19.9°C 96.8°F36.0°C - 8.4 mph WNW13.5 kmh WNW 10.4 mph16.7 kmh 30.32 in1026.8 mb 0.00 in0.0 mm 0.00 in0.0 mm 0.00 in0.0 mm
04:04 PM 68.0°F20.0°C 97.0°F36.1°C - 9.5 mph WSW15.3 kmh WSW 11.5 mph18.5 kmh 30.32 in1026.8 mb 0.00 in0.0 mm 0.00 in0.0 mm 0.00 in0.0 mm
04:09 PM 68.0°F20.0°C 96.8°F36.0°C - 8.5 mph WSW13.7 kmh WSW 10.2 mph16.4 kmh 30.32 in1026.8 mb 0.00 in0.0 mm 0.00 in0.0 mm 0.00 in0.0 mm
04:14 PM 68.0°F20.0°C 97.0°F36.1°C - 9.7 mph W15.6 kmh W 12.4 mph20.0 kmh 30.32 in1026.8 mb 0.00 in0.0 mm 0.00 in0.0 mm 0.00 in0.0 mm
04:19 PM 68.0°F20.0°C 97.0°F36.1°C - 9.8 mph W15.8 kmh W 12.0 mph19.3 kmh 30.32 in1026.8 mb 0.00 in0.0 mm 0.00 in0.0 mm 0.00 in0.0 mm
04:24 PM 68.0°F20.0°C 97.0°F36.1°C - 9.5 mph W15.3 kmh W 11.7 mph18.8 kmh 30.32 in1026.8 mb 0.00 in0.0 mm 0.00 in0.0 mm 0.00 in0.0 mm
04:29 PM 68.0°F20.0°C 97.0°F36.1°C - 9.3 mph WNW15.0 kmh WNW 11.5 mph18.5 kmh 30.32 in1026.8 mb 0.00 in0.0 mm 0.00 in0.0 mm 0.00 in0.0 mm
04:34 PM 68.0°F20.0°C 97.0°F36.1°C - 10.6 mph WNW17.1 kmh WNW 13.0 mph20.9 kmh 30.32 in1026.8 mb 0.00 in0.0 mm 0.00 in0.0 mm 0.00 in0.0 mm
04:39 PM 68.0°F20.0°C 97.0°F36.1°C - 8.8 mph WNW14.2 kmh WNW 10.4 mph16.7 kmh 30.32 in1026.8 mb 0.00 in0.0 mm 0.00 in0.0 mm 0.00 in0.0 mm
04:44 PM 68.0°F20.0°C 97.0°F36.1°C - 10.5 mph WNW16.9 kmh WNW 12.7 mph20.4 kmh 30.32 in1026.8 mb 0.00 in0.0 mm 0.00 in0.0 mm 0.00 in0.0 mm
04:49 PM 68.0°F20.0°C 96.8°F36.0°C - 8.1 mph WNW13.0 kmh WNW 9.3 mph15.0 kmh 30.32 in1026.8 mb 0.00 in0.0 mm 0.00 in0.0 mm 0.00 in0.0 mm
04:54 PM 68.0°F20.0°C 96.8°F36.0°C - 9.9 mph W15.9 kmh W 11.7 mph18.8 kmh 30.32 in1026.8 mb 0.00 in0.0 mm 0.00 in0.0 mm 0.00 in0.0 mm
04:59 PM 68.0°F20.0°C 97.0°F36.1°C - 8.9 mph W14.3 kmh W 10.3 mph16.6 kmh 30.32 in1026.8 mb 0.00 in0.0 mm 0.00 in0.0 mm 0.00 in0.0 mm
05:04 PM 68.0°F20.0°C 96.8°F36.0°C - 8.8 mph W14.2 kmh W 10.3 mph16.6 kmh 30.32 in1026.8 mb 0.00 in0.0 mm 0.00 in0.0 mm 0.00 in0.0 mm
05:09 PM 68.0°F20.0°C 97.0°F36.1°C - 8.3 mph WSW13.4 kmh WSW 10.6 mph17.1 kmh 30.32 in1026.8 mb 0.00 in0.0 mm 0.00 in0.0 mm 0.00 in0.0 mm
05:14 PM 68.0°F20.0°C 97.0°F36.1°C - 9.4 mph W15.1 kmh W 10.9 mph17.5 kmh 30.32 in1026.8 mb 0.00 in0.0 mm 0.00 in0.0 mm 0.00 in0.0 mm
05:19 PM 68.0°F20.0°C 96.8°F36.0°C - 9.6 mph W15.4 kmh W 11.4 mph18.3 kmh 30.32 in1026.8 mb 0.00 in0.0 mm 0.00 in0.0 mm 0.00 in0.0 mm
05:24 PM 68.0°F20.0°C 96.8°F36.0°C - 9.4 mph WNW15.1 kmh WNW 10.9 mph17.5 kmh 30.32 in1026.8 mb 0.00 in0.0 mm 0.00 in0.0 mm 0.00 in0.0 mm
05:29 PM 67.9°F19.9°C 96.7°F35.9°C - 9.5 mph WNW15.3 kmh WNW 10.4 mph16.7 kmh 30.32 in1026.8 mb 0.00 in0.0 mm 0.00 in0.0 mm 0.00 in0.0 mm
05:34 PM 67.9°F19.9°C 96.7°F35.9°C - 9.9 mph W15.9 kmh W 11.9 mph19.2 kmh 30.32 in1026.8 mb 0.00 in0.0 mm 0.00 in0.0 mm 0.00 in0.0 mm
05:39 PM 67.9°F19.9°C 96.8°F36.0°C - 10.4 mph WNW16.7 kmh WNW 12.7 mph20.4 kmh 30.32 in1026.8 mb 0.00 in0.0 mm 0.00 in0.0 mm 0.00 in0.0 mm
05:44 PM 67.7°F19.8°C 96.5°F35.8°C - 12.9 mph WNW20.8 kmh WNW 14.7 mph23.7 kmh 30.31 in1026.4 mb 0.00 in0.0 mm 0.00 in0.0 mm 0.00 in0.0 mm
05:49 PM 67.7°F19.8°C 96.5°F35.8°C - 10.6 mph W17.1 kmh W 12.4 mph20.0 kmh 30.32 in1026.8 mb 0.00 in0.0 mm 0.00 in0.0 mm 0.00 in0.0 mm
05:54 PM 67.7°F19.8°C 96.6°F35.9°C - 10.9 mph W17.5 kmh W 12.5 mph20.1 kmh 30.32 in1026.8 mb 0.00 in0.0 mm 0.00 in0.0 mm 0.00 in0.0 mm
05:59 PM 67.7°F19.8°C 96.6°F35.9°C - 9.4 mph W15.1 kmh W 10.6 mph17.1 kmh 30.32 in1026.8 mb 0.00 in0.0 mm 0.00 in0.0 mm 0.00 in0.0 mm
06:04 PM 67.7°F19.8°C 96.6°F35.9°C - 9.1 mph W14.6 kmh W 10.9 mph17.5 kmh 30.32 in1026.8 mb 0.00 in0.0 mm 0.00 in0.0 mm 0.00 in0.0 mm
06:09 PM 67.8°F19.9°C 96.7°F35.9°C - 8.3 mph W13.4 kmh W 9.9 mph15.9 kmh 30.32 in1026.8 mb 0.00 in0.0 mm 0.00 in0.0 mm 0.00 in0.0 mm
06:14 PM 67.7°F19.8°C 96.6°F35.9°C - 10.2 mph W16.4 kmh W 12.2 mph19.6 kmh 30.31 in1026.4 mb 0.00 in0.0 mm 0.00 in0.0 mm 0.00 in0.0 mm
06:19 PM 67.7°F19.8°C 96.6°F35.9°C - 9.6 mph W15.4 kmh W 11.4 mph18.3 kmh 30.31 in1026.4 mb 0.00 in0.0 mm 0.00 in0.0 mm 0.00 in0.0 mm
06:24 PM 67.7°F19.8°C 96.6°F35.9°C - 10.1 mph WNW16.3 kmh WNW 13.2 mph21.2 kmh 30.31 in1026.4 mb 0.00 in0.0 mm 0.00 in0.0 mm 0.00 in0.0 mm
06:29 PM 67.7°F19.8°C 96.6°F35.9°C - 8.4 mph W13.5 kmh W 10.9 mph17.5 kmh 30.31 in1026.4 mb 0.00 in0.0 mm 0.00 in0.0 mm 0.00 in0.0 mm
06:34 PM 67.5°F19.7°C 96.3°F35.7°C - 8.1 mph W13.0 kmh W 9.9 mph15.9 kmh 30.31 in1026.4 mb 0.00 in0.0 mm 0.00 in0.0 mm 0.00 in0.0 mm
06:39 PM 67.5°F19.7°C 96.3°F35.7°C - 9.9 mph WNW15.9 kmh WNW 11.4 mph18.3 kmh 30.31 in1026.4 mb 0.00 in0.0 mm 0.00 in0.0 mm 0.00 in0.0 mm
06:44 PM 67.3°F19.6°C 96.2°F35.7°C - 10.0 mph W16.1 kmh W 11.9 mph19.2 kmh 30.31 in1026.4 mb 0.00 in0.0 mm 0.00 in0.0 mm 0.00 in0.0 mm
06:49 PM 67.2°F19.6°C 96.1°F35.6°C - 8.6 mph W13.8 kmh W 10.2 mph16.4 kmh 30.31 in1026.4 mb 0.00 in0.0 mm 0.00 in0.0 mm 0.00 in0.0 mm
06:54 PM 67.2°F19.6°C 95.9°F35.5°C - 6.9 mph W11.1 kmh W 8.8 mph14.2 kmh 30.31 in1026.4 mb 0.00 in0.0 mm 0.00 in0.0 mm 0.00 in0.0 mm
06:59 PM 67.2°F19.6°C 96.1°F35.6°C - 7.8 mph WSW12.6 kmh WSW 9.7 mph15.6 kmh 30.31 in1026.4 mb 0.00 in0.0 mm 0.00 in0.0 mm 0.00 in0.0 mm
07:04 PM 67.1°F19.5°C 95.9°F35.5°C - 10.9 mph W17.5 kmh W 12.9 mph20.8 kmh 30.31 in1026.4 mb 0.00 in0.0 mm 0.00 in0.0 mm 0.00 in0.0 mm
07:09 PM 67.0°F19.4°C 95.8°F35.4°C - 8.3 mph W13.4 kmh W 10.6 mph17.1 kmh 30.31 in1026.4 mb 0.00 in0.0 mm 0.00 in0.0 mm 0.00 in0.0 mm
07:14 PM 67.0°F19.4°C 95.7°F35.4°C - 9.2 mph WSW14.8 kmh WSW 11.2 mph18.0 kmh 30.31 in1026.4 mb 0.00 in0.0 mm 0.00 in0.0 mm 0.00 in0.0 mm
07:19 PM 67.0°F19.4°C 95.8°F35.4°C - 8.3 mph WSW13.4 kmh WSW 10.5 mph16.9 kmh 30.31 in1026.4 mb 0.00 in0.0 mm 0.00 in0.0 mm 0.00 in0.0 mm
07:24 PM 66.9°F19.4°C 95.7°F35.4°C - 8.5 mph W13.7 kmh W 10.9 mph17.5 kmh 30.31 in1026.4 mb 0.00 in0.0 mm 0.00 in0.0 mm 0.00 in0.0 mm
07:29 PM 66.9°F19.4°C 95.7°F35.4°C - 8.1 mph W13.0 kmh W 10.0 mph16.1 kmh 30.31 in1026.4 mb 0.00 in0.0 mm 0.00 in0.0 mm 0.00 in0.0 mm
07:34 PM 66.9°F19.4°C 95.6°F35.3°C - 8.7 mph WSW14.0 kmh WSW 10.3 mph16.6 kmh 30.31 in1026.4 mb 0.00 in0.0 mm 0.00 in0.0 mm 0.00 in0.0 mm
07:39 PM 66.7°F19.3°C 95.5°F35.3°C - 10.0 mph WSW16.1 kmh WSW 12.0 mph19.3 kmh 30.31 in1026.4 mb 0.00 in0.0 mm 0.00 in0.0 mm 0.00 in0.0 mm
07:44 PM 66.7°F19.3°C 95.4°F35.2°C - 7.8 mph WSW12.6 kmh WSW 9.7 mph15.6 kmh 30.31 in1026.4 mb 0.00 in0.0 mm 0.00 in0.0 mm 0.00 in0.0 mm
07:49 PM 66.5°F19.2°C 95.3°F35.2°C - 8.5 mph WSW13.7 kmh WSW 11.0 mph17.7 kmh 30.31 in1026.4 mb 0.00 in0.0 mm 0.00 in0.0 mm 0.00 in0.0 mm
07:54 PM 66.2°F19.0°C 94.9°F34.9°C - 6.7 mph WSW10.8 kmh WSW 8.4 mph13.5 kmh 30.31 in1026.4 mb 0.00 in0.0 mm 0.00 in0.0 mm 0.00 in0.0 mm
07:59 PM 66.2°F19.0°C 94.8°F34.9°C - 7.1 mph WSW11.4 kmh WSW 8.8 mph14.2 kmh 30.31 in1026.4 mb 0.00 in0.0 mm 0.00 in0.0 mm 0.00 in0.0 mm
08:04 PM 66.2°F19.0°C 94.9°F34.9°C - 8.3 mph W13.4 kmh W 10.1 mph16.3 kmh 30.31 in1026.4 mb 0.00 in0.0 mm 0.00 in0.0 mm 0.00 in0.0 mm
08:09 PM 66.2°F19.0°C 94.8°F34.9°C - 7.3 mph W11.7 kmh W 8.8 mph14.2 kmh 30.31 in1026.4 mb 0.00 in0.0 mm 0.00 in0.0 mm 0.00 in0.0 mm
08:14 PM 66.2°F19.0°C 94.9°F34.9°C - 7.2 mph W11.6 kmh W 8.7 mph14.0 kmh 30.31 in1026.4 mb 0.00 in0.0 mm 0.00 in0.0 mm 0.00 in0.0 mm
08:19 PM 66.0°F18.9°C 94.7°F34.8°C - 7.3 mph WSW11.7 kmh WSW 8.7 mph14.0 kmh 30.31 in1026.4 mb 0.00 in0.0 mm 0.00 in0.0 mm 0.00 in0.0 mm
08:24 PM 66.0°F18.9°C 94.6°F34.8°C - 7.0 mph WSW11.3 kmh WSW 9.2 mph14.8 kmh 30.31 in1026.4 mb 0.00 in0.0 mm 0.00 in0.0 mm 0.00 in0.0 mm
08:29 PM 65.9°F18.8°C 94.6°F34.8°C - 6.4 mph WSW10.3 kmh WSW 7.9 mph12.7 kmh 30.31 in1026.4 mb 0.00 in0.0 mm 0.00 in0.0 mm 0.00 in0.0 mm
08:34 PM 66.0°F18.9°C 94.7°F34.8°C - 5.0 mph WSW8.0 kmh WSW 6.3 mph10.1 kmh 30.31 in1026.4 mb 0.00 in0.0 mm 0.00 in0.0 mm 0.00 in0.0 mm
08:39 PM 66.0°F18.9°C 94.7°F34.8°C - 4.3 mph WSW6.9 kmh WSW 5.4 mph8.7 kmh 30.31 in1026.4 mb 0.00 in0.0 mm 0.00 in0.0 mm 0.00 in0.0 mm
08:44 PM 66.0°F18.9°C 94.7°F34.8°C - 4.8 mph SW7.7 kmh SW 6.5 mph10.5 kmh 30.31 in1026.4 mb 0.00 in0.0 mm 0.00 in0.0 mm 0.00 in0.0 mm
08:49 PM 66.0°F18.9°C 94.7°F34.8°C - 5.2 mph SW8.4 kmh SW 6.8 mph10.9 kmh 30.31 in1026.4 mb 0.00 in0.0 mm 0.00 in0.0 mm 0.00 in0.0 mm
08:54 PM 66.0°F18.9°C 94.7°F34.8°C - 4.6 mph SSW7.4 kmh SSW 6.8 mph10.9 kmh 30.31 in1026.4 mb 0.00 in0.0 mm 0.00 in0.0 mm 0.00 in0.0 mm
08:59 PM 66.0°F18.9°C 94.7°F34.8°C - 4.7 mph SSW7.6 kmh SSW 5.9 mph9.5 kmh 30.31 in1026.4 mb 0.00 in0.0 mm 0.00 in0.0 mm 0.00 in0.0 mm
09:04 PM 65.8°F18.8°C 94.3°F34.6°C - 4.7 mph SSW7.6 kmh SSW 6.2 mph10.0 kmh 30.31 in1026.4 mb 0.00 in0.0 mm 0.00 in0.0 mm 0.00 in0.0 mm
09:09 PM 65.7°F18.7°C 94.4°F34.7°C - 3.8 mph WSW6.1 kmh WSW 5.0 mph8.0 kmh 30.31 in1026.4 mb 0.00 in0.0 mm 0.00 in0.0 mm 0.00 in0.0 mm
09:14 PM 65.5°F18.6°C 94.1°F34.5°C - 4.3 mph WSW6.9 kmh WSW 5.6 mph9.0 kmh 30.31 in1026.4 mb 0.00 in0.0 mm 0.00 in0.0 mm 0.00 in0.0 mm
09:19 PM 65.5°F18.6°C 94.1°F34.5°C - 5.1 mph SW8.2 kmh SW 6.7 mph10.8 kmh 30.32 in1026.8 mb 0.00 in0.0 mm 0.00 in0.0 mm 0.00 in0.0 mm
09:24 PM 65.4°F18.6°C 93.9°F34.4°C - 5.4 mph WSW8.7 kmh WSW 7.0 mph11.3 kmh 30.32 in1026.8 mb 0.00 in0.0 mm 0.00 in0.0 mm 0.00 in0.0 mm
09:29 PM 65.4°F18.6°C 94.0°F34.4°C - 4.7 mph SW7.6 kmh SW 6.0 mph9.7 kmh 30.32 in1026.8 mb 0.00 in0.0 mm 0.00 in0.0 mm 0.00 in0.0 mm
09:34 PM 65.3°F18.5°C 93.9°F34.4°C - 5.0 mph SW8.0 kmh SW 6.3 mph10.1 kmh 30.32 in1026.8 mb 0.00 in0.0 mm 0.00 in0.0 mm 0.00 in0.0 mm
09:39 PM 65.4°F18.6°C 93.9°F34.4°C - 5.5 mph SW8.9 kmh SW 7.0 mph11.3 kmh 30.32 in1026.8 mb 0.00 in0.0 mm 0.00 in0.0 mm 0.00 in0.0 mm
09:44 PM 65.4°F18.6°C 93.9°F34.4°C - 6.9 mph WSW11.1 kmh WSW 9.1 mph14.6 kmh 30.32 in1026.8 mb 0.00 in0.0 mm 0.00 in0.0 mm 0.00 in0.0 mm
09:49 PM 65.4°F18.6°C 94.0°F34.4°C - 5.4 mph SW8.7 kmh SW 7.1 mph11.4 kmh 30.32 in1026.8 mb 0.00 in0.0 mm 0.00 in0.0 mm 0.00 in0.0 mm
09:54 PM 65.4°F18.6°C 94.0°F34.4°C - 5.8 mph SW9.3 kmh SW 8.0 mph12.9 kmh 30.32 in1026.8 mb 0.00 in0.0 mm 0.00 in0.0 mm 0.00 in0.0 mm
09:59 PM 65.2°F18.4°C 93.7°F34.3°C - 6.0 mph SW9.7 kmh SW 7.9 mph12.7 kmh 30.32 in1026.8 mb 0.00 in0.0 mm 0.00 in0.0 mm 0.00 in0.0 mm
10:04 PM 65.2°F18.4°C 93.8°F34.3°C - 7.6 mph WSW12.2 kmh WSW 10.2 mph16.4 kmh 30.32 in1026.8 mb 0.00 in0.0 mm 0.00 in0.0 mm 0.00 in0.0 mm
10:09 PM 65.2°F18.4°C 93.7°F34.3°C - 7.0 mph WSW11.3 kmh WSW 9.1 mph14.6 kmh 30.32 in1026.8 mb 0.00 in0.0 mm 0.00 in0.0 mm 0.00 in0.0 mm
10:14 PM 65.2°F18.4°C 93.8°F34.3°C - 6.8 mph WSW10.9 kmh WSW 9.4 mph15.1 kmh 30.32 in1026.8 mb 0.00 in0.0 mm 0.00 in0.0 mm 0.00 in0.0 mm
10:19 PM 65.2°F18.4°C 93.8°F34.3°C - 7.6 mph WSW12.2 kmh WSW 9.8 mph15.8 kmh 30.32 in1026.8 mb 0.00 in0.0 mm 0.00 in0.0 mm 0.00 in0.0 mm
10:24 PM 65.2°F18.4°C 93.8°F34.3°C - 7.4 mph WSW11.9 kmh WSW 10.2 mph16.4 kmh 30.32 in1026.8 mb 0.00 in0.0 mm 0.00 in0.0 mm 0.00 in0.0 mm
10:29 PM 65.2°F18.4°C 93.8°F34.3°C - 7.4 mph WSW11.9 kmh WSW 9.9 mph15.9 kmh 30.32 in1026.8 mb 0.00 in0.0 mm 0.00 in0.0 mm 0.00 in0.0 mm
10:34 PM 65.0°F18.3°C 93.4°F34.1°C - 7.1 mph WSW11.4 kmh WSW 10.1 mph16.3 kmh 30.32 in1026.8 mb 0.00 in0.0 mm 0.00 in0.0 mm 0.00 in0.0 mm
10:39 PM 64.9°F18.3°C 93.3°F34.1°C - 6.7 mph WSW10.8 kmh WSW 8.4 mph13.5 kmh 30.31 in1026.4 mb 0.00 in0.0 mm 0.00 in0.0 mm 0.00 in0.0 mm
10:44 PM 64.9°F18.3°C 93.3°F34.1°C - 6.3 mph WSW10.1 kmh WSW 8.5 mph13.7 kmh 30.32 in1026.8 mb 0.00 in0.0 mm 0.00 in0.0 mm 0.00 in0.0 mm
10:49 PM 64.7°F18.2°C 93.2°F34.0°C - 5.8 mph SW9.3 kmh SW 8.3 mph13.4 kmh 30.31 in1026.4 mb 0.00 in0.0 mm 0.00 in0.0 mm 0.00 in0.0 mm
10:54 PM 64.7°F18.2°C 93.1°F33.9°C - 6.6 mph SW10.6 kmh SW 8.5 mph13.7 kmh 30.31 in1026.4 mb 0.00 in0.0 mm 0.00 in0.0 mm 0.00 in0.0 mm
11:04 PM 64.9°F18.3°C 93.5°F34.2°C - 6.1 mph SW9.8 kmh SW 8.3 mph13.4 kmh 30.31 in1026.4 mb 0.00 in0.0 mm 0.00 in0.0 mm 0.00 in0.0 mm
11:09 PM 65.0°F18.3°C 93.6°F34.2°C - 6.1 mph SW9.8 kmh SW 7.9 mph12.7 kmh 30.31 in1026.4 mb 0.00 in0.0 mm 0.00 in0.0 mm 0.00 in0.0 mm
11:14 PM 65.0°F18.3°C 93.4°F34.1°C - 8.4 mph SW13.5 kmh SW 11.7 mph18.8 kmh 30.31 in1026.4 mb 0.00 in0.0 mm 0.00 in0.0 mm 0.00 in0.0 mm
11:19 PM 65.2°F18.4°C 93.8°F34.3°C - 7.9 mph SW12.7 kmh SW 10.8 mph17.4 kmh 30.31 in1026.4 mb 0.00 in0.0 mm 0.00 in0.0 mm 0.00 in0.0 mm
11:24 PM 65.2°F18.4°C 93.8°F34.3°C - 7.5 mph SW12.1 kmh SW 10.8 mph17.4 kmh 30.31 in1026.4 mb 0.00 in0.0 mm 0.00 in0.0 mm 0.00 in0.0 mm
11:29 PM 65.2°F18.4°C 93.7°F34.3°C - 7.6 mph SW12.2 kmh SW 10.2 mph16.4 kmh 30.31 in1026.4 mb 0.00 in0.0 mm 0.00 in0.0 mm 0.00 in0.0 mm
11:34 PM 65.2°F18.4°C 93.8°F34.3°C - 7.6 mph SW12.2 kmh SW 11.8 mph19.0 kmh 30.30 in1026.1 mb 0.00 in0.0 mm 0.00 in0.0 mm 0.00 in0.0 mm
11:39 PM 65.2°F18.4°C 93.8°F34.3°C - 8.7 mph SW14.0 kmh SW 11.6 mph18.7 kmh 30.30 in1026.1 mb 0.00 in0.0 mm 0.00 in0.0 mm 0.00 in0.0 mm
11:44 PM 65.2°F18.4°C 93.8°F34.3°C - 9.3 mph SW15.0 kmh SW 12.7 mph20.4 kmh 30.30 in1026.1 mb 0.00 in0.0 mm 0.00 in0.0 mm 0.00 in0.0 mm
11:49 PM 65.2°F18.4°C 93.8°F34.3°C - 7.4 mph SW11.9 kmh SW 10.3 mph16.6 kmh 30.30 in1026.1 mb 0.00 in0.0 mm 0.00 in0.0 mm 0.00 in0.0 mm
11:54 PM 65.2°F18.4°C 93.7°F34.3°C - 7.7 mph SW12.4 kmh SW 10.5 mph16.9 kmh 30.30 in1026.1 mb 0.00 in0.0 mm 0.00 in0.0 mm 0.00 in0.0 mm
11:59 PM 65.2°F18.4°C 93.7°F34.3°C - 8.9 mph SW14.3 kmh SW 12.4 mph20.0 kmh 30.29 in1025.7 mb 0.00 in0.0 mm 0.00 in0.0 mm 0.00 in0.0 mm